sensor_id;sensor_type;location;lat;lon;timestamp;pressure;altitude;pressure_sealevel;temperature;humidity
50710;BME280;37033;49.994;21.992;2023-02-28T00:03:00;100571.95;;;-3.21;67.67
50710;BME280;37033;49.994;21.992;2023-02-28T00:05:51;100570.15;;;-3.26;67.86
50710;BME280;37033;49.994;21.992;2023-02-28T00:08:40;100574.03;;;-3.27;68.18
50710;BME280;37033;49.994;21.992;2023-02-28T00:11:30;100575.63;;;-3.30;68.16
50710;BME280;37033;49.994;21.992;2023-02-28T00:14:20;100580.38;;;-3.31;68.47
50710;BME280;37033;49.994;21.992;2023-02-28T00:17:09;100584.62;;;-3.33;68.48
50710;BME280;37033;49.994;21.992;2023-02-28T00:19:59;100590.34;;;-3.36;68.68
50710;BME280;37033;49.994;21.992;2023-02-28T00:22:58;100595.69;;;-3.39;68.67
50710;BME280;37033;49.994;21.992;2023-02-28T00:25:47;100596.94;;;-3.41;68.47
50710;BME280;37033;49.994;21.992;2023-02-28T00:28:37;100589.61;;;-3.45;68.65
50710;BME280;37033;49.994;21.992;2023-02-28T00:31:28;100589.31;;;-3.48;68.75
50710;BME280;37033;49.994;21.992;2023-02-28T00:34:18;100590.09;;;-3.51;68.81
50710;BME280;37033;49.994;21.992;2023-02-28T00:37:08;100584.10;;;-3.54;68.85
50710;BME280;37033;49.994;21.992;2023-02-28T00:40:00;100580.07;;;-3.57;68.92
50710;BME280;37033;49.994;21.992;2023-02-28T00:42:50;100578.05;;;-3.60;69.03
50710;BME280;37033;49.994;21.992;2023-02-28T00:45:40;100581.29;;;-3.63;69.14
50710;BME280;37033;49.994;21.992;2023-02-28T00:48:30;100578.11;;;-3.68;69.08
50710;BME280;37033;49.994;21.992;2023-02-28T00:51:20;100579.54;;;-3.72;69.06
50710;BME280;37033;49.994;21.992;2023-02-28T00:54:10;100576.23;;;-3.75;69.20
50710;BME280;37033;49.994;21.992;2023-02-28T00:56:59;100576.95;;;-3.78;69.22
50710;BME280;37033;49.994;21.992;2023-02-28T00:59:49;100580.73;;;-3.81;69.21
50710;BME280;37033;49.994;21.992;2023-02-28T01:02:38;100582.89;;;-3.84;69.39
50710;BME280;37033;49.994;21.992;2023-02-28T01:05:28;100582.88;;;-3.86;69.46
50710;BME280;37033;49.994;21.992;2023-02-28T01:08:17;100580.84;;;-3.89;69.56
50710;BME280;37033;49.994;21.992;2023-02-28T01:11:13;100580.06;;;-3.93;69.62
50710;BME280;37033;49.994;21.992;2023-02-28T01:14:03;100581.36;;;-3.96;69.71
50710;BME280;37033;49.994;21.992;2023-02-28T01:16:53;100583.17;;;-4.01;69.72
50710;BME280;37033;49.994;21.992;2023-02-28T01:19:43;100588.79;;;-4.05;69.63
50710;BME280;37033;49.994;21.992;2023-02-28T01:22:32;100586.33;;;-4.10;69.65
50710;BME280;37033;49.994;21.992;2023-02-28T01:25:23;100586.30;;;-4.14;69.83
50710;BME280;37033;49.994;21.992;2023-02-28T01:28:12;100585.27;;;-4.17;69.93
50710;BME280;37033;49.994;21.992;2023-02-28T01:31:02;100588.44;;;-4.19;70.04
50710;BME280;37033;49.994;21.992;2023-02-28T01:33:52;100594.42;;;-4.21;70.02
50710;BME280;37033;49.994;21.992;2023-02-28T01:36:41;100592.73;;;-4.25;70.10
50710;BME280;37033;49.994;21.992;2023-02-28T01:39:32;100592.69;;;-4.29;70.16
50710;BME280;37033;49.994;21.992;2023-02-28T01:42:22;100593.27;;;-4.31;70.16
50710;BME280;37033;49.994;21.992;2023-02-28T01:45:23;100592.64;;;-4.35;70.45
50710;BME280;37033;49.994;21.992;2023-02-28T01:48:14;100595.98;;;-4.40;70.77
50710;BME280;37033;49.994;21.992;2023-02-28T01:51:08;100595.13;;;-4.42;70.73
50710;BME280;37033;49.994;21.992;2023-02-28T01:54:01;100589.77;;;-4.46;70.67
50710;BME280;37033;49.994;21.992;2023-02-28T01:56:56;100596.05;;;-4.49;70.71
50710;BME280;37033;49.994;21.992;2023-02-28T01:59:52;100603.11;;;-4.52;70.71
50710;BME280;37033;49.994;21.992;2023-02-28T02:02:43;100607.83;;;-4.54;70.75
50710;BME280;37033;49.994;21.992;2023-02-28T02:05:35;100607.34;;;-4.57;70.77
50710;BME280;37033;49.994;21.992;2023-02-28T02:08:28;100609.31;;;-4.59;70.70
50710;BME280;37033;49.994;21.992;2023-02-28T02:11:20;100608.23;;;-4.62;70.94
50710;BME280;37033;49.994;21.992;2023-02-28T02:14:24;100605.35;;;-4.63;71.14
50710;BME280;37033;49.994;21.992;2023-02-28T02:17:25;100606.84;;;-4.64;71.12
50710;BME280;37033;49.994;21.992;2023-02-28T02:20:49;100610.57;;;-4.67;71.13
50710;BME280;37033;49.994;21.992;2023-02-28T02:27:45;100607.63;;;-4.72;71.54
50710;BME280;37033;49.994;21.992;2023-02-28T02:30:48;100608.12;;;-4.74;71.62
50710;BME280;37033;49.994;21.992;2023-02-28T02:37:07;100595.89;;;-4.81;71.63
50710;BME280;37033;49.994;21.992;2023-02-28T02:40:07;100589.91;;;-4.84;71.87
50710;BME280;37033;49.994;21.992;2023-02-28T02:43:03;100588.42;;;-4.88;71.76
50710;BME280;37033;49.994;21.992;2023-02-28T02:45:59;100584.77;;;-4.91;71.86
50710;BME280;37033;49.994;21.992;2023-02-28T02:48:52;100575.39;;;-4.93;72.08
50710;BME280;37033;49.994;21.992;2023-02-28T02:51:45;100580.89;;;-4.93;72.32
50710;BME280;37033;49.994;21.992;2023-02-28T02:54:37;100584.15;;;-4.95;72.34
50710;BME280;37033;49.994;21.992;2023-02-28T02:57:32;100583.21;;;-4.97;72.53
50710;BME280;37033;49.994;21.992;2023-02-28T03:00:29;100585.84;;;-4.99;72.45
50710;BME280;37033;49.994;21.992;2023-02-28T03:03:20;100588.52;;;-5.01;72.61
50710;BME280;37033;49.994;21.992;2023-02-28T03:06:17;100590.06;;;-5.03;72.79
50710;BME280;37033;49.994;21.992;2023-02-28T03:09:07;100586.84;;;-5.07;72.74
50710;BME280;37033;49.994;21.992;2023-02-28T03:11:57;100588.08;;;-5.10;72.91
50710;BME280;37033;49.994;21.992;2023-02-28T03:14:56;100589.91;;;-5.11;72.94
50710;BME280;37033;49.994;21.992;2023-02-28T03:18:00;100595.77;;;-5.14;73.07
50710;BME280;37033;49.994;21.992;2023-02-28T03:20:59;100592.60;;;-5.17;73.01
50710;BME280;37033;49.994;21.992;2023-02-28T03:23:57;100598.21;;;-5.18;73.06
50710;BME280;37033;49.994;21.992;2023-02-28T03:26:54;100598.91;;;-5.20;73.16
50710;BME280;37033;49.994;21.992;2023-02-28T03:29:52;100601.88;;;-5.22;73.17
50710;BME280;37033;49.994;21.992;2023-02-28T03:32:49;100609.05;;;-5.26;72.94
50710;BME280;37033;49.994;21.992;2023-02-28T03:35:42;100613.66;;;-5.29;73.05
50710;BME280;37033;49.994;21.992;2023-02-28T03:38:36;100608.49;;;-5.31;73.22
50710;BME280;37033;49.994;21.992;2023-02-28T03:41:32;100609.30;;;-5.34;73.17
50710;BME280;37033;49.994;21.992;2023-02-28T03:44:27;100615.84;;;-5.37;73.47
50710;BME280;37033;49.994;21.992;2023-02-28T03:47:23;100619.45;;;-5.39;73.48
50710;BME280;37033;49.994;21.992;2023-02-28T03:50:17;100619.98;;;-5.41;73.48
50710;BME280;37033;49.994;21.992;2023-02-28T03:53:14;100619.58;;;-5.43;73.51
50710;BME280;37033;49.994;21.992;2023-02-28T03:56:07;100615.32;;;-5.45;73.59
50710;BME280;37033;49.994;21.992;2023-02-28T03:59:04;100618.67;;;-5.48;73.60
50710;BME280;37033;49.994;21.992;2023-02-28T04:01:55;100616.44;;;-5.51;73.82
50710;BME280;37033;49.994;21.992;2023-02-28T04:04:46;100613.08;;;-5.53;73.70
50710;BME280;37033;49.994;21.992;2023-02-28T04:07:38;100611.44;;;-5.55;73.70
50710;BME280;37033;49.994;21.992;2023-02-28T04:10:27;100614.73;;;-5.57;73.70
50710;BME280;37033;49.994;21.992;2023-02-28T04:13:17;100614.48;;;-5.58;73.77
50710;BME280;37033;49.994;21.992;2023-02-28T04:16:09;100615.15;;;-5.60;73.88
50710;BME280;37033;49.994;21.992;2023-02-28T04:19:00;100611.17;;;-5.64;73.80
50710;BME280;37033;49.994;21.992;2023-02-28T04:21:52;100610.91;;;-5.68;73.86
50710;BME280;37033;49.994;21.992;2023-02-28T04:24:42;100616.08;;;-5.71;73.74
50710;BME280;37033;49.994;21.992;2023-02-28T04:27:32;100620.03;;;-5.75;73.73
50710;BME280;37033;49.994;21.992;2023-02-28T04:30:21;100617.09;;;-5.78;73.80
50710;BME280;37033;49.994;21.992;2023-02-28T04:33:11;100625.39;;;-5.81;73.78
50710;BME280;37033;49.994;21.992;2023-02-28T04:36:02;100624.71;;;-5.84;73.85
50710;BME280;37033;49.994;21.992;2023-02-28T04:38:53;100628.80;;;-5.87;74.12
50710;BME280;37033;49.994;21.992;2023-02-28T04:41:42;100629.39;;;-5.88;74.20
50710;BME280;37033;49.994;21.992;2023-02-28T04:44:32;100624.55;;;-5.89;74.35
50710;BME280;37033;49.994;21.992;2023-02-28T04:47:21;100620.70;;;-5.90;74.40
50710;BME280;37033;49.994;21.992;2023-02-28T04:50:12;100620.22;;;-5.90;74.49
50710;BME280;37033;49.994;21.992;2023-02-28T04:53:01;100620.85;;;-5.89;74.79
50710;BME280;37033;49.994;21.992;2023-02-28T04:55:51;100626.27;;;-5.88;74.59
50710;BME280;37033;49.994;21.992;2023-02-28T04:58:40;100630.59;;;-5.90;74.75
50710;BME280;37033;49.994;21.992;2023-02-28T05:01:32;100635.86;;;-5.92;74.45
50710;BME280;37033;49.994;21.992;2023-02-28T05:04:21;100637.58;;;-5.94;74.48
50710;BME280;37033;49.994;21.992;2023-02-28T05:07:11;100639.02;;;-5.97;74.34
50710;BME280;37033;49.994;21.992;2023-02-28T05:10:00;100645.58;;;-5.99;74.41
50710;BME280;37033;49.994;21.992;2023-02-28T05:12:51;100647.52;;;-6.02;74.38
50710;BME280;37033;49.994;21.992;2023-02-28T05:15:40;100648.42;;;-6.05;74.37
50710;BME280;37033;49.994;21.992;2023-02-28T05:18:30;100649.23;;;-6.06;74.53
50710;BME280;37033;49.994;21.992;2023-02-28T05:21:26;100649.30;;;-6.07;74.69
50710;BME280;37033;49.994;21.992;2023-02-28T05:24:16;100651.38;;;-6.07;74.73
50710;BME280;37033;49.994;21.992;2023-02-28T05:27:11;100648.05;;;-6.07;74.78
50710;BME280;37033;49.994;21.992;2023-02-28T05:30:01;100651.05;;;-6.07;74.99
50710;BME280;37033;49.994;21.992;2023-02-28T05:32:52;100656.80;;;-6.06;75.09
50710;BME280;37033;49.994;21.992;2023-02-28T05:35:42;100658.66;;;-6.05;75.08
50710;BME280;37033;49.994;21.992;2023-02-28T05:38:33;100656.50;;;-6.04;75.12
50710;BME280;37033;49.994;21.992;2023-02-28T05:41:22;100657.20;;;-6.04;75.24
50710;BME280;37033;49.994;21.992;2023-02-28T05:44:12;100659.83;;;-6.04;75.21
50710;BME280;37033;49.994;21.992;2023-02-28T05:47:01;100663.64;;;-6.03;75.27
50710;BME280;37033;49.994;21.992;2023-02-28T05:49:51;100666.46;;;-6.03;75.26
50710;BME280;37033;49.994;21.992;2023-02-28T05:52:41;100670.06;;;-6.01;75.66
50710;BME280;37033;49.994;21.992;2023-02-28T05:55:31;100668.89;;;-6.00;75.64
50710;BME280;37033;49.994;21.992;2023-02-28T05:58:21;100672.13;;;-5.98;75.64
50710;BME280;37033;49.994;21.992;2023-02-28T06:01:32;100676.59;;;-5.96;75.71
50710;BME280;37033;49.994;21.992;2023-02-28T06:04:22;100682.08;;;-5.94;75.80
50710;BME280;37033;49.994;21.992;2023-02-28T06:07:13;100683.06;;;-5.93;75.87
50710;BME280;37033;49.994;21.992;2023-02-28T06:10:03;100687.11;;;-5.90;75.99
50710;BME280;37033;49.994;21.992;2023-02-28T06:12:53;100697.52;;;-5.87;75.90
50710;BME280;37033;49.994;21.992;2023-02-28T06:15:43;100698.02;;;-5.84;76.09
50710;BME280;37033;49.994;21.992;2023-02-28T06:18:33;100697.48;;;-5.79;76.06
50710;BME280;37033;49.994;21.992;2023-02-28T06:21:22;100701.28;;;-5.73;76.26
50710;BME280;37033;49.994;21.992;2023-02-28T06:24:11;100700.38;;;-5.67;76.33
50710;BME280;37033;49.994;21.992;2023-02-28T06:27:01;100705.40;;;-5.63;76.33
50710;BME280;37033;49.994;21.992;2023-02-28T06:29:55;100706.73;;;-5.59;76.33
50710;BME280;37033;49.994;21.992;2023-02-28T06:32:44;100715.34;;;-5.53;76.50
50710;BME280;37033;49.994;21.992;2023-02-28T06:35:37;100720.19;;;-5.47;76.61
50710;BME280;37033;49.994;21.992;2023-02-28T06:38:27;100720.70;;;-5.39;76.45
50710;BME280;37033;49.994;21.992;2023-02-28T06:41:16;100719.20;;;-5.30;76.60
50710;BME280;37033;49.994;21.992;2023-02-28T06:44:08;100717.07;;;-5.22;77.13
50710;BME280;37033;49.994;21.992;2023-02-28T06:47:00;100718.60;;;-5.14;77.12
50710;BME280;37033;49.994;21.992;2023-02-28T06:49:51;100718.31;;;-5.05;77.28
50710;BME280;37033;49.994;21.992;2023-02-28T06:52:41;100716.20;;;-4.95;77.41
50710;BME280;37033;49.994;21.992;2023-02-28T06:55:31;100717.75;;;-4.86;77.26
50710;BME280;37033;49.994;21.992;2023-02-28T06:58:20;100721.05;;;-4.78;77.02
50710;BME280;37033;49.994;21.992;2023-02-28T07:01:10;100723.89;;;-4.71;77.14
50710;BME280;37033;49.994;21.992;2023-02-28T07:04:00;100719.33;;;-4.64;77.12
50710;BME280;37033;49.994;21.992;2023-02-28T07:06:50;100718.95;;;-4.56;77.18
50710;BME280;37033;49.994;21.992;2023-02-28T07:09:39;100713.81;;;-4.49;77.11
50710;BME280;37033;49.994;21.992;2023-02-28T07:12:29;100714.98;;;-4.41;77.26
50710;BME280;37033;49.994;21.992;2023-02-28T07:15:18;100713.66;;;-4.32;77.51
50710;BME280;37033;49.994;21.992;2023-02-28T07:18:08;100715.59;;;-4.25;77.64
50710;BME280;37033;49.994;21.992;2023-02-28T07:20:58;100713.80;;;-4.17;77.76
50710;BME280;37033;49.994;21.992;2023-02-28T07:23:47;100715.80;;;-4.08;77.66
50710;BME280;37033;49.994;21.992;2023-02-28T07:26:37;100715.84;;;-4.00;77.75
50710;BME280;37033;49.994;21.992;2023-02-28T07:29:26;100712.80;;;-3.90;77.87
50710;BME280;37033;49.994;21.992;2023-02-28T07:32:16;100714.19;;;-3.78;78.60
50710;BME280;37033;49.994;21.992;2023-02-28T07:35:08;100711.11;;;-3.67;78.68
50710;BME280;37033;49.994;21.992;2023-02-28T07:37:58;100710.38;;;-3.58;78.60
50710;BME280;37033;49.994;21.992;2023-02-28T07:40:48;100711.52;;;-3.47;78.89
50710;BME280;37033;49.994;21.992;2023-02-28T07:43:37;100707.87;;;-3.39;78.95
50710;BME280;37033;49.994;21.992;2023-02-28T07:46:27;100706.94;;;-3.29;79.00
50710;BME280;37033;49.994;21.992;2023-02-28T07:49:23;100701.04;;;-3.24;79.27
50710;BME280;37033;49.994;21.992;2023-02-28T07:52:12;100705.25;;;-3.17;79.32
50710;BME280;37033;49.994;21.992;2023-02-28T07:55:02;100698.66;;;-3.09;79.36
50710;BME280;37033;49.994;21.992;2023-02-28T07:57:52;100703.27;;;-3.03;79.22
50710;BME280;37033;49.994;21.992;2023-02-28T08:00:42;100702.20;;;-2.93;79.25
50710;BME280;37033;49.994;21.992;2023-02-28T08:03:31;100705.24;;;-2.85;79.24
50710;BME280;37033;49.994;21.992;2023-02-28T08:06:23;100703.09;;;-2.80;79.03
50710;BME280;37033;49.994;21.992;2023-02-28T08:09:12;100706.17;;;-2.72;78.95
50710;BME280;37033;49.994;21.992;2023-02-28T08:12:02;100712.13;;;-2.67;78.92
50710;BME280;37033;49.994;21.992;2023-02-28T08:14:52;100711.74;;;-2.57;78.85
50710;BME280;37033;49.994;21.992;2023-02-28T08:17:42;100712.25;;;-2.49;79.24
50710;BME280;37033;49.994;21.992;2023-02-28T08:20:31;100715.06;;;-2.42;79.10
50710;BME280;37033;49.994;21.992;2023-02-28T08:23:21;100717.70;;;-2.35;78.87
50710;BME280;37033;49.994;21.992;2023-02-28T08:26:12;100718.70;;;-2.29;78.55
50710;BME280;37033;49.994;21.992;2023-02-28T08:29:02;100718.08;;;-2.22;78.48
50710;BME280;37033;49.994;21.992;2023-02-28T08:31:52;100715.38;;;-2.15;78.25
50710;BME280;37033;49.994;21.992;2023-02-28T08:34:41;100713.53;;;-2.10;78.04
50710;BME280;37033;49.994;21.992;2023-02-28T08:37:31;100715.56;;;-2.04;77.50
50710;BME280;37033;49.994;21.992;2023-02-28T08:40:21;100711.84;;;-2.02;77.28
50710;BME280;37033;49.994;21.992;2023-02-28T08:43:11;100708.02;;;-1.97;76.97
50710;BME280;37033;49.994;21.992;2023-02-28T08:46:00;100710.91;;;-1.91;76.78
50710;BME280;37033;49.994;21.992;2023-02-28T08:48:54;100709.38;;;-1.88;76.12
50710;BME280;37033;49.994;21.992;2023-02-28T08:51:44;100706.13;;;-1.85;76.07
50710;BME280;37033;49.994;21.992;2023-02-28T08:54:34;100711.04;;;-1.80;76.21
50710;BME280;37033;49.994;21.992;2023-02-28T08:57:24;100708.83;;;-1.77;75.91
50710;BME280;37033;49.994;21.992;2023-02-28T09:00:16;100707.13;;;-1.78;75.88
50710;BME280;37033;49.994;21.992;2023-02-28T09:03:05;100703.58;;;-1.78;75.94
50710;BME280;37033;49.994;21.992;2023-02-28T09:05:57;100708.17;;;-1.75;75.88
50710;BME280;37033;49.994;21.992;2023-02-28T09:08:49;100702.47;;;-1.69;75.82
50710;BME280;37033;49.994;21.992;2023-02-28T09:11:38;100700.56;;;-1.63;75.42
50710;BME280;37033;49.994;21.992;2023-02-28T09:14:28;100704.77;;;-1.56;74.38
50710;BME280;37033;49.994;21.992;2023-02-28T09:17:18;100703.13;;;-1.51;74.17
50710;BME280;37033;49.994;21.992;2023-02-28T09:20:10;100704.30;;;-1.44;74.01
50710;BME280;37033;49.994;21.992;2023-02-28T09:23:00;100703.56;;;-1.37;74.06
50710;BME280;37033;49.994;21.992;2023-02-28T09:25:51;100699.58;;;-1.29;73.94
50710;BME280;37033;49.994;21.992;2023-02-28T09:28:41;100698.34;;;-1.21;73.74
50710;BME280;37033;49.994;21.992;2023-02-28T09:31:31;100700.48;;;-1.12;73.15
50710;BME280;37033;49.994;21.992;2023-02-28T09:34:21;100703.52;;;-1.07;72.83
50710;BME280;37033;49.994;21.992;2023-02-28T09:37:10;100701.27;;;-0.99;72.83
50710;BME280;37033;49.994;21.992;2023-02-28T09:40:00;100699.98;;;-0.90;72.70
50710;BME280;37033;49.994;21.992;2023-02-28T09:42:53;100709.86;;;-0.77;72.75
50710;BME280;37033;49.994;21.992;2023-02-28T09:45:51;100703.00;;;-0.62;72.58
50710;BME280;37033;49.994;21.992;2023-02-28T09:48:48;100708.17;;;-0.50;72.08
50710;BME280;37033;49.994;21.992;2023-02-28T09:51:49;100709.34;;;-0.41;71.73
50710;BME280;37033;49.994;21.992;2023-02-28T09:54:40;100706.33;;;-0.29;71.93
50710;BME280;37033;49.994;21.992;2023-02-28T09:57:35;100700.13;;;-0.18;71.71
50710;BME280;37033;49.994;21.992;2023-02-28T10:00:32;100705.42;;;-0.06;71.85
50710;BME280;37033;49.994;21.992;2023-02-28T10:03:30;100705.48;;;0.06;71.69
50710;BME280;37033;49.994;21.992;2023-02-28T10:06:26;100701.33;;;0.15;71.28
50710;BME280;37033;49.994;21.992;2023-02-28T10:09:20;100698.24;;;0.23;71.12
50710;BME280;37033;49.994;21.992;2023-02-28T10:12:12;100696.71;;;0.29;71.29
50710;BME280;37033;49.994;21.992;2023-02-28T10:15:15;100692.58;;;0.39;71.03
50710;BME280;37033;49.994;21.992;2023-02-28T10:18:09;100688.80;;;0.47;70.78
50710;BME280;37033;49.994;21.992;2023-02-28T10:21:00;100685.73;;;0.57;70.72
50710;BME280;37033;49.994;21.992;2023-02-28T10:23:56;100676.98;;;0.68;70.88
50710;BME280;37033;49.994;21.992;2023-02-28T10:26:49;100674.77;;;0.78;70.33
50710;BME280;37033;49.994;21.992;2023-02-28T10:29:44;100674.18;;;0.90;69.37
50710;BME280;37033;49.994;21.992;2023-02-28T10:32:36;100673.66;;;1.03;69.55
50710;BME280;37033;49.994;21.992;2023-02-28T10:35:28;100668.33;;;1.14;69.07
50710;BME280;37033;49.994;21.992;2023-02-28T10:38:20;100665.59;;;1.20;68.87
50710;BME280;37033;49.994;21.992;2023-02-28T10:41:11;100661.11;;;1.26;68.55
50710;BME280;37033;49.994;21.992;2023-02-28T10:44:20;100653.48;;;1.29;68.47
50710;BME280;37033;49.994;21.992;2023-02-28T10:47:15;100653.63;;;1.31;68.58
50710;BME280;37033;49.994;21.992;2023-02-28T10:50:08;100647.09;;;1.30;68.65
50710;BME280;37033;49.994;21.992;2023-02-28T10:53:30;100641.37;;;1.29;68.43
50710;BME280;37033;49.994;21.992;2023-02-28T10:56:22;100638.08;;;1.33;67.89
50710;BME280;37033;49.994;21.992;2023-02-28T10:59:29;100638.41;;;1.35;67.55
50710;BME280;37033;49.994;21.992;2023-02-28T11:02:34;100639.92;;;1.36;66.42
50710;BME280;37033;49.994;21.992;2023-02-28T11:05:32;100636.45;;;1.31;66.79
50710;BME280;37033;49.994;21.992;2023-02-28T11:08:23;100632.65;;;1.30;65.79
50710;BME280;37033;49.994;21.992;2023-02-28T11:11:13;100629.81;;;1.25;66.51
50710;BME280;37033;49.994;21.992;2023-02-28T11:14:14;100628.14;;;1.24;67.07
50710;BME280;37033;49.994;21.992;2023-02-28T11:17:18;100627.80;;;1.23;67.44
50710;BME280;37033;49.994;21.992;2023-02-28T11:23:13;100624.73;;;1.40;68.18
50710;BME280;37033;49.994;21.992;2023-02-28T11:26:04;100622.82;;;1.54;67.65
50710;BME280;37033;49.994;21.992;2023-02-28T11:29:12;100622.19;;;1.64;67.15
50710;BME280;37033;49.994;21.992;2023-02-28T11:32:13;100616.02;;;1.70;66.86
50710;BME280;37033;49.994;21.992;2023-02-28T11:35:17;100617.70;;;1.71;66.91
50710;BME280;37033;49.994;21.992;2023-02-28T11:38:11;100619.73;;;1.69;67.14
50710;BME280;37033;49.994;21.992;2023-02-28T11:41:13;100622.37;;;1.69;67.08
50710;BME280;37033;49.994;21.992;2023-02-28T11:44:16;100619.65;;;1.66;67.03
50710;BME280;37033;49.994;21.992;2023-02-28T11:47:13;100620.73;;;1.66;66.93
50710;BME280;37033;49.994;21.992;2023-02-28T11:50:16;100618.80;;;1.66;67.01
50710;BME280;37033;49.994;21.992;2023-02-28T11:53:17;100625.64;;;1.69;67.24
50710;BME280;37033;49.994;21.992;2023-02-28T11:56:17;100622.80;;;1.77;67.22
50710;BME280;37033;49.994;21.992;2023-02-28T11:59:29;100625.13;;;1.85;66.93
50710;BME280;37033;49.994;21.992;2023-02-28T12:02:30;100627.35;;;1.86;66.97
50710;BME280;37033;49.994;21.992;2023-02-28T12:05:29;100626.25;;;1.91;66.66
50710;BME280;37033;49.994;21.992;2023-02-28T12:08:30;100623.88;;;1.97;66.87
50710;BME280;37033;49.994;21.992;2023-02-28T12:11:34;100620.66;;;2.01;66.58
50710;BME280;37033;49.994;21.992;2023-02-28T12:15:12;100617.05;;;2.04;66.69
50710;BME280;37033;49.994;21.992;2023-02-28T12:18:17;100612.96;;;2.11;66.53
50710;BME280;37033;49.994;21.992;2023-02-28T12:21:18;100617.34;;;2.19;66.51
50710;BME280;37033;49.994;21.992;2023-02-28T12:24:31;100612.56;;;2.24;66.23
50710;BME280;37033;49.994;21.992;2023-02-28T12:27:29;100607.54;;;2.28;65.87
50710;BME280;37033;49.994;21.992;2023-02-28T12:30:24;100603.16;;;2.23;65.38
50710;BME280;37033;49.994;21.992;2023-02-28T12:33:17;100600.23;;;2.22;65.64
50710;BME280;37033;49.994;21.992;2023-02-28T12:36:13;100599.45;;;2.23;65.61
50710;BME280;37033;49.994;21.992;2023-02-28T12:39:10;100599.84;;;2.21;65.58
50710;BME280;37033;49.994;21.992;2023-02-28T12:42:05;100603.02;;;2.23;65.26
50710;BME280;37033;49.994;21.992;2023-02-28T12:45:01;100598.02;;;2.23;65.44
50710;BME280;37033;49.994;21.992;2023-02-28T12:47:52;100595.80;;;2.32;65.80
50710;BME280;37033;49.994;21.992;2023-02-28T12:50:45;100597.06;;;2.42;65.05
50710;BME280;37033;49.994;21.992;2023-02-28T12:53:42;100591.29;;;2.45;65.44
50710;BME280;37033;49.994;21.992;2023-02-28T12:56:42;100588.48;;;2.51;65.02
50710;BME280;37033;49.994;21.992;2023-02-28T12:59:39;100586.69;;;2.51;64.88
50710;BME280;37033;49.994;21.992;2023-02-28T13:06:07;100586.36;;;2.46;64.90
50710;BME280;37033;49.994;21.992;2023-02-28T13:09:05;100580.61;;;2.44;64.93
50710;BME280;37033;49.994;21.992;2023-02-28T13:11:59;100575.70;;;2.47;64.79
50710;BME280;37033;49.994;21.992;2023-02-28T13:14:49;100578.45;;;2.53;64.71
50710;BME280;37033;49.994;21.992;2023-02-28T13:17:40;100573.05;;;2.62;64.39
50710;BME280;37033;49.994;21.992;2023-02-28T13:20:35;100568.05;;;2.70;64.25
50710;BME280;37033;49.994;21.992;2023-02-28T13:23:55;100563.24;;;2.75;63.53
50710;BME280;37033;49.994;21.992;2023-02-28T13:33:37;100552.59;;;3.11;63.61
50710;BME280;37033;49.994;21.992;2023-02-28T13:36:47;100550.56;;;3.24;64.02
50710;BME280;37033;49.994;21.992;2023-02-28T13:39:51;100545.45;;;3.43;64.04
50710;BME280;37033;49.994;21.992;2023-02-28T13:42:48;100545.73;;;3.55;63.03
50710;BME280;37033;49.994;21.992;2023-02-28T13:45:38;100544.48;;;3.63;62.86
50710;BME280;37033;49.994;21.992;2023-02-28T13:48:30;100542.17;;;3.68;62.58
50710;BME280;37033;49.994;21.992;2023-02-28T13:51:41;100531.92;;;3.67;62.61
50710;BME280;37033;49.994;21.992;2023-02-28T13:54:39;100529.52;;;3.61;62.47
50710;BME280;37033;49.994;21.992;2023-02-28T13:57:44;100532.87;;;3.52;62.38
50710;BME280;37033;49.994;21.992;2023-02-28T14:00:47;100526.33;;;3.44;62.19
50710;BME280;37033;49.994;21.992;2023-02-28T14:04:01;100526.23;;;3.35;62.46
50710;BME280;37033;49.994;21.992;2023-02-28T14:06:59;100524.09;;;3.25;62.51
50710;BME280;37033;49.994;21.992;2023-02-28T14:09:57;100522.52;;;3.18;62.58
50710;BME280;37033;49.994;21.992;2023-02-28T14:13:00;100524.08;;;3.12;62.56
50710;BME280;37033;49.994;21.992;2023-02-28T14:15:57;100524.00;;;3.04;62.63
50710;BME280;37033;49.994;21.992;2023-02-28T14:18:55;100523.39;;;2.95;62.19
50710;BME280;37033;49.994;21.992;2023-02-28T14:22:06;100526.47;;;2.86;62.61
50710;BME280;37033;49.994;21.992;2023-02-28T14:25:10;100528.59;;;2.81;62.51
50710;BME280;37033;49.994;21.992;2023-02-28T14:28:13;100532.88;;;2.76;62.52
50710;BME280;37033;49.994;21.992;2023-02-28T14:31:10;100531.81;;;2.69;62.81
50710;BME280;37033;49.994;21.992;2023-02-28T14:34:17;100530.41;;;2.71;62.89
50710;BME280;37033;49.994;21.992;2023-02-28T14:37:15;100531.58;;;2.70;62.52
50710;BME280;37033;49.994;21.992;2023-02-28T14:40:13;100528.19;;;2.71;62.74
50710;BME280;37033;49.994;21.992;2023-02-28T14:43:06;100529.14;;;2.73;62.71
50710;BME280;37033;49.994;21.992;2023-02-28T14:46:08;100528.35;;;2.70;62.48
50710;BME280;37033;49.994;21.992;2023-02-28T14:49:02;100529.36;;;2.66;62.15
50710;BME280;37033;49.994;21.992;2023-02-28T14:52:05;100528.66;;;2.57;61.98
50710;BME280;37033;49.994;21.992;2023-02-28T14:54:59;100524.99;;;2.51;62.31
50710;BME280;37033;49.994;21.992;2023-02-28T14:57:56;100531.23;;;2.49;62.61
50710;BME280;37033;49.994;21.992;2023-02-28T15:00:50;100527.60;;;2.50;62.43
50710;BME280;37033;49.994;21.992;2023-02-28T15:03:41;100526.21;;;2.48;62.40
50710;BME280;37033;49.994;21.992;2023-02-28T15:06:33;100521.48;;;2.47;62.10
50710;BME280;37033;49.994;21.992;2023-02-28T15:09:23;100516.92;;;2.42;62.41
50710;BME280;37033;49.994;21.992;2023-02-28T15:12:15;100518.30;;;2.41;62.43
50710;BME280;37033;49.994;21.992;2023-02-28T15:15:13;100522.52;;;2.42;62.45
50710;BME280;37033;49.994;21.992;2023-02-28T15:18:06;100524.77;;;2.39;62.36
50710;BME280;37033;49.994;21.992;2023-02-28T15:21:00;100526.39;;;2.34;62.36
50710;BME280;37033;49.994;21.992;2023-02-28T15:23:53;100525.11;;;2.32;62.57